Time;durP1;ratioP1;P1;durP2;ratioP2;P2;SDS_P1;SDS_P2;PMS_P1;PMS_P2;Temp;Humidity;BMP_temperature;BMP_pressure;BME280_temperature;BME280_humidity;BME280_pressure;Samples;Min_cycle;Max_cycle;Signal;HPM_P1;HPM_P2
2021/06/02 00:02:20;;;;;;;5.05;4.57;;;19.00;91.90;;;;;;5031650;28;20121;-79
2021/06/02 00:04:51;;;;;;;4.93;4.10;;;19.00;92.60;;;;;;5023580;28;20037;-79
2021/06/02 00:07:22;;;;;;;9.18;4.63;;;19.00;92.20;;;;;;5023243;28;20022;-79
2021/06/02 00:09:49;;;;;;;8.52;5.32;;;18.90;92.50;;;;;;5029427;28;20120;-79
2021/06/02 00:12:15;;;;;;;6.20;4.72;;;18.90;92.30;;;;;;5031132;28;20017;-79
2021/06/02 00:14:41;;;;;;;9.30;4.50;;;18.80;91.90;;;;;;5030005;28;20087;-79
2021/06/02 00:17:08;;;;;;;9.65;4.80;;;18.80;91.80;;;;;;5031799;28;20025;-79
2021/06/02 00:19:34;;;;;;;6.72;4.07;;;18.70;91.90;;;;;;5030060;28;20120;-80
2021/06/02 00:22:01;;;;;;;7.18;3.90;;;18.40;93.70;;;;;;5031890;28;20022;-80
2021/06/02 00:24:27;;;;;;;5.78;4.05;;;18.40;93.80;;;;;;5030843;28;20017;-78
2021/06/02 00:26:56;;;;;;;7.90;4.60;;;18.30;94.10;;;;;;5032157;28;20030;-77
2021/06/02 00:29:26;;;;;;;6.63;4.60;;;18.40;93.50;;;;;;5035502;28;20029;-78
2021/06/02 00:31:53;;;;;;;6.05;5.15;;;18.30;93.70;;;;;;5024249;28;20477;-78
2021/06/02 00:34:20;;;;;;;5.50;4.30;;;18.30;94.10;;;;;;5028261;28;20029;-73
2021/06/02 00:36:48;;;;;;;6.90;4.75;;;18.20;94.80;;;;;;5029619;28;20040;-77
2021/06/02 00:39:14;;;;;;;7.32;5.32;;;18.20;94.30;;;;;;5031857;28;20060;-79
2021/06/02 00:41:42;;;;;;;5.75;4.95;;;18.20;94.50;;;;;;5031042;28;20025;-78
2021/06/02 00:44:10;;;;;;;7.47;4.43;;;18.20;94.50;;;;;;5031161;28;20029;-77
2021/06/02 00:46:37;;;;;;;7.07;5.10;;;18.20;94.20;;;;;;5032610;28;20041;-77
2021/06/02 00:49:08;;;;;;;7.15;5.03;;;18.20;94.30;;;;;;5024309;28;20017;-78
2021/06/02 00:51:35;;;;;;;7.35;4.80;;;18.10;94.00;;;;;;5031045;28;20079;-78
2021/06/02 00:54:01;;;;;;;5.85;5.32;;;18.10;93.90;;;;;;5031375;28;20021;-78
2021/06/02 00:56:36;;;;;;;8.07;5.45;;;18.10;94.00;;;;;;5031156;28;20080;-77
2021/06/02 00:59:03;;;;;;;7.43;5.97;;;18.00;93.50;;;;;;5030089;28;20040;-79
2021/06/02 01:01:33;;;;;;;7.28;5.53;;;18.00;93.70;;;;;;5031090;28;20022;-77
2021/06/02 01:04:03;;;;;;;6.43;5.55;;;17.90;93.80;;;;;;5030471;28;20474;-77
2021/06/02 01:06:33;;;;;;;6.05;5.45;;;17.60;94.30;;;;;;5031990;28;20084;-76
2021/06/02 01:09:01;;;;;;;8.18;5.20;;;17.60;94.60;;;;;;5031200;28;20029;-77
2021/06/02 01:11:29;;;;;;;5.88;5.13;;;17.60;94.90;;;;;;5034429;28;20026;-73
2021/06/02 01:13:57;;;;;;;7.35;5.82;;;17.50;95.30;;;;;;5027395;28;20021;-77
2021/06/02 01:16:28;;;;;;;6.05;4.57;;;17.50;95.50;;;;;;5035078;28;20516;-75
2021/06/02 01:18:54;;;;;;;6.38;4.97;;;17.50;95.60;;;;;;5032831;28;20017;-78
2021/06/02 01:21:23;;;;;;;8.80;5.40;;;17.50;95.30;;;;;;5035309;28;20461;-79
2021/06/02 01:23:56;;;;;;;8.00;6.53;;;17.50;94.90;;;;;;5046615;28;20025;-79
2021/06/02 01:26:23;;;;;;;12.93;6.47;;;17.50;94.50;;;;;;5031216;28;20010;-78
2021/06/02 01:28:50;;;;;;;9.75;5.93;;;17.50;94.20;;;;;;5034517;28;20032;-79
2021/06/02 01:31:33;;;;;;;10.38;6.38;;;17.50;94.10;;;;;;5035530;28;20121;-75
2021/06/02 01:34:25;;;;;;;9.20;6.93;;;17.50;93.80;;;;;;5027704;28;20506;-75
2021/06/02 01:37:11;;;;;;;9.70;6.60;;;17.50;94.00;;;;;;5032515;28;20113;-74
2021/06/02 01:40:15;;;;;;;6.68;5.68;;;17.40;94.20;;;;;;5034478;28;20382;-78
2021/06/02 01:43:16;;;;;;;6.72;6.00;;;17.40;94.90;;;;;;5033751;28;20494;-78
2021/06/02 01:46:27;;;;;;;7.55;4.88;;;17.40;95.30;;;;;;4954291;28;20476;-78
2021/06/02 01:48:56;;;;;;;9.82;5.85;;;17.30;96.10;;;;;;5031453;28;20029;-78
2021/06/02 01:51:42;;;;;;;7.40;5.43;;;17.30;95.50;;;;;;5041712;28;20022;-73
2021/06/02 01:54:11;;;;;;;9.52;6.65;;;17.30;95.40;;;;;;5025290;28;20057;-77
2021/06/02 01:57:10;;;;;;;9.32;6.00;;;17.30;95.30;;;;;;5032973;28;20041;-78
2021/06/02 02:00:03;;;;;;;7.93;5.97;;;17.20;95.60;;;;;;5044669;28;20033;-77
2021/06/02 02:02:49;;;;;;;7.85;5.88;;;17.20;95.80;;;;;;5030458;28;20085;-80
2021/06/02 02:05:50;;;;;;;13.68;6.32;;;17.10;95.60;;;;;;5033949;28;20033;-76
2021/06/02 02:08:45;;;;;;;6.97;6.10;;;17.10;95.10;;;;;;4971658;28;20031;-80
2021/06/02 02:11:32;;;;;;;8.27;6.22;;;17.10;95.60;;;;;;5027506;28;20045;-81
2021/06/02 02:14:35;;;;;;;7.15;6.10;;;17.10;95.70;;;;;;5031690;28;20036;-80
2021/06/02 02:17:19;;;;;;;9.15;6.22;;;17.00;96.00;;;;;;5027510;28;20041;-80
2021/06/02 02:20:00;;;;;;;8.07;7.13;;;16.90;96.40;;;;;;5032510;28;20033;-80
2021/06/02 02:22:30;;;;;;;13.05;9.05;;;16.90;95.70;;;;;;5033081;28;20385;-80
2021/06/02 02:25:06;;;;;;;11.57;7.72;;;16.80;95.50;;;;;;5031199;28;20017;-79
2021/06/02 02:28:04;;;;;;;15.10;8.45;;;16.70;96.00;;;;;;5033600;28;20087;-79
2021/06/02 02:30:48;;;;;;;10.55;7.63;;;16.70;95.80;;;;;;4999634;28;20496;-80
2021/06/02 02:33:22;;;;;;;15.10;8.27;;;16.60;95.80;;;;;;5033816;28;20021;-80
2021/06/02 02:36:05;;;;;;;13.20;7.80;;;16.60;96.10;;;;;;5027466;28;20035;-80
2021/06/02 02:38:38;;;;;;;9.30;7.93;;;16.50;96.30;;;;;;5032019;28;20080;-79
2021/06/02 02:41:41;;;;;;;11.38;8.68;;;16.50;96.50;;;;;;5038640;28;20025;-78
2021/06/02 02:44:13;;;;;;;;;;;16.40;96.30;;;;;;5028373;28;20024;-77
2021/06/02 02:47:03;;;;;;;10.45;8.50;;;16.40;96.30;;;;;;5033468;28;19905;-78
2021/06/02 02:50:06;;;;;;;11.85;8.57;;;16.40;96.20;;;;;;5030595;28;20109;-76
2021/06/02 02:52:34;;;;;;;;;;;16.40;96.10;;;;;;5033735;28;20132;-76
2021/06/02 02:55:11;;;;;;;11.43;9.07;;;16.30;96.10;;;;;;5032608;28;19992;-79
2021/06/02 02:58:18;;;;;;;10.32;8.73;;;16.30;96.20;;;;;;5032567;28;20044;-79
2021/06/02 03:01:15;;;;;;;10.55;9.00;;;16.30;96.20;;;;;;5032750;28;20026;-79
2021/06/02 03:03:48;;;;;;;13.98;9.40;;;16.20;96.50;;;;;;5032817;28;20445;-79
2021/06/02 03:06:20;;;;;;;13.30;9.25;;;16.20;96.20;;;;;;5028808;28;20013;-80
2021/06/02 03:09:21;;;;;;;12.98;9.15;;;16.10;96.40;;;;;;5043890;28;20035;-79
2021/06/02 03:11:58;;;;;;;12.90;10.77;;;16.10;96.80;;;;;;5032574;28;20030;-79
2021/06/02 03:15:01;;;;;;;10.27;7.78;;;16.10;96.80;;;;;;5024964;28;20018;-76
2021/06/02 03:17:35;;;;;;;12.18;9.73;;;16.00;97.20;;;;;;5031351;28;20090;-79
2021/06/02 03:20:09;;;;;;;12.57;9.20;;;16.00;97.00;;;;;;5033242;28;20017;-80
2021/06/02 03:23:08;;;;;;;10.93;8.68;;;15.90;97.00;;;;;;5026178;28;20028;-79
2021/06/02 03:25:52;;;;;;;11.65;10.20;;;15.80;97.40;;;;;;5029036;28;20462;-80
2021/06/02 03:28:56;;;;;;;14.02;9.70;;;15.80;97.40;;;;;;5036409;28;20405;-80
2021/06/02 03:31:25;;;;;;;11.60;8.25;;;15.70;98.10;;;;;;5030115;28;20014;-80
2021/06/02 03:34:18;;;;;;;10.23;8.00;;;15.80;97.90;;;;;;5024997;28;20092;-80
2021/06/02 03:36:58;;;;;;;11.02;7.97;;;15.70;98.20;;;;;;5031076;28;20426;-79
2021/06/02 03:39:48;;;;;;;12.35;8.02;;;15.70;98.00;;;;;;5031749;28;20509;-75
2021/06/02 03:42:51;;;;;;;9.77;8.75;;;15.70;98.10;;;;;;5028021;28;20386;-80
2021/06/02 03:45:55;;;;;;;12.98;8.95;;;15.60;98.50;;;;;;5031018;28;20078;-79
2021/06/02 03:48:38;;;;;;;10.13;8.35;;;15.60;98.30;;;;;;5029517;28;20124;-80
2021/06/02 03:51:19;;;;;;;10.85;9.15;;;15.60;97.90;;;;;;5026743;28;20033;-80
2021/06/02 03:54:10;;;;;;;13.35;9.68;;;15.60;98.10;;;;;;5038190;28;20029;-80
2021/06/02 03:57:00;;;;;;;14.65;11.70;;;15.60;98.00;;;;;;5032691;28;20029;-79
2021/06/02 03:59:38;;;;;;;9.48;8.52;;;15.60;98.60;;;;;;5022536;28;20037;-79
2021/06/02 04:02:17;;;;;;;12.45;9.65;;;15.50;99.20;;;;;;5025352;28;20039;-79
2021/06/02 04:05:04;;;;;;;10.68;9.00;;;15.40;99.10;;;;;;5023281;28;20010;-78
2021/06/02 04:08:08;;;;;;;14.60;9.13;;;15.40;98.60;;;;;;5031184;28;20493;-80
2021/06/02 04:11:11;;;;;;;9.07;8.07;;;15.40;99.30;;;;;;5026115;28;20116;-80
2021/06/02 04:13:59;;;;;;;12.43;8.98;;;15.40;98.60;;;;;;5030901;28;20025;-80
2021/06/02 04:16:29;;;;;;;12.52;8.25;;;15.50;98.40;;;;;;5031325;28;20028;-80
2021/06/02 04:18:58;;;;;;;11.73;8.55;;;15.40;99.30;;;;;;5024742;28;20064;-79
2021/06/02 04:21:25;;;;;;;12.73;9.07;;;15.40;98.50;;;;;;5031287;28;20068;-77
2021/06/02 04:23:52;;;;;;;11.02;8.02;;;15.50;98.60;;;;;;5034178;28;20397;-80
2021/06/02 04:26:18;;;;;;;9.70;8.60;;;15.30;99.80;;;;;;5044445;28;20022;-78
2021/06/02 04:28:46;;;;;;;8.55;7.75;;;15.30;99.80;;;;;;5020515;28;20032;-80
2021/06/02 04:31:14;;;;;;;10.63;7.72;;;15.30;99.80;;;;;;5031967;28;20021;-80
2021/06/02 04:33:42;;;;;;;15.65;8.63;;;15.30;99.20;;;;;;5031571;28;20067;-79
2021/06/02 04:36:12;;;;;;;11.35;8.95;;;15.30;99.10;;;;;;5030762;28;20033;-80
2021/06/02 04:38:39;;;;;;;13.23;8.88;;;15.30;98.90;;;;;;5030626;28;20433;-81
2021/06/02 04:41:07;;;;;;;10.93;9.23;;;15.30;99.40;;;;;;5032115;28;20028;-79
2021/06/02 04:43:38;;;;;;;10.02;8.80;;;15.30;99.80;;;;;;5031186;28;20017;-80
2021/06/02 04:46:07;;;;;;;13.38;10.25;;;15.30;99.30;;;;;;5031875;28;20355;-80
2021/06/02 04:48:33;;;;;;;13.73;9.98;;;15.30;99.20;;;;;;5031329;28;20052;-80
2021/06/02 04:51:22;;;;;;;11.45;8.95;;;15.40;99.30;;;;;;5030417;28;20458;-79
2021/06/02 04:54:06;;;;;;;11.85;9.82;;;15.40;99.80;;;;;;5031348;28;20460;-79
2021/06/02 04:56:55;;;;;;;10.82;8.85;;;15.40;99.80;;;;;;5031283;28;20025;-78
2021/06/02 04:59:52;;;;;;;12.10;10.27;;;15.40;99.80;;;;;;4988246;28;20041;-82
2021/06/02 05:02:41;;;;;;;11.07;9.75;;;15.40;99.90;;;;;;5030959;28;20059;-80
2021/06/02 05:05:45;;;;;;;11.82;10.00;;;15.50;99.90;;;;;;5018221;28;20025;-77
2021/06/02 05:08:53;;;;;;;13.52;10.43;;;15.50;99.90;;;;;;4970216;28;20042;-79
2021/06/02 05:11:43;;;;;;;14.80;10.77;;;15.50;99.90;;;;;;5027220;28;20025;-80
2021/06/02 05:14:45;;;;;;;12.48;10.85;;;15.50;99.90;;;;;;5027304;28;20041;-80
2021/06/02 05:17:35;;;;;;;15.98;10.35;;;15.60;99.90;;;;;;5025659;28;20076;-80
2021/06/02 05:23:52;;;;;;;13.48;9.52;;;15.70;99.90;;;;;;5005569;28;20045;-79
2021/06/02 05:26:42;;;;;;;10.95;9.63;;;15.60;99.90;;;;;;5027202;28;20486;-78
2021/06/02 05:29:32;;;;;;;9.90;8.80;;;15.70;99.90;;;;;;5026504;28;20494;-80
2021/06/02 05:32:16;;;;;;;14.13;9.93;;;15.70;99.90;;;;;;5029721;28;20479;-83
2021/06/02 05:34:57;;;;;;;17.90;10.30;;;15.70;99.90;;;;;;5029857;28;20442;-81
2021/06/02 05:37:47;;;;;;;15.30;9.80;;;15.80;99.90;;;;;;5031343;28;20069;-80
2021/06/02 05:40:57;;;;;;;13.63;11.15;;;15.70;99.90;;;;;;5026561;28;20547;-81
2021/06/02 05:43:34;;;;;;;15.50;10.45;;;15.80;99.90;;;;;;5027261;28;20506;-81
2021/06/02 05:46:30;;;;;;;14.32;10.60;;;15.80;99.90;;;;;;5024391;28;20020;-81
2021/06/02 05:49:11;;;;;;;14.30;10.13;;;15.90;99.90;;;;;;5024742;28;20032;-81
2021/06/02 05:51:59;;;;;;;10.30;8.93;;;15.90;99.90;;;;;;5021553;28;20030;-79
2021/06/02 05:54:49;;;;;;;15.23;9.10;;;15.90;99.90;;;;;;5019670;28;20010;-80
2021/06/02 05:57:42;;;;;;;16.33;10.75;;;16.00;99.90;;;;;;5031513;28;20022;-83
2021/06/02 06:00:14;;;;;;;13.50;10.52;;;15.90;99.90;;;;;;5028813;28;20032;-76
2021/06/02 06:02:58;;;;;;;16.58;11.80;;;15.90;99.90;;;;;;5026793;28;20500;-79
2021/06/02 06:05:40;;;;;;;20.50;14.63;;;16.00;99.90;;;;;;5021837;28;20079;-79
2021/06/02 06:08:53;;;;;;;18.23;12.80;;;16.10;99.90;;;;;;5036476;28;20025;-80
2021/06/02 06:11:49;;;;;;;16.45;12.68;;;16.20;99.90;;;;;;4988674;28;20048;-79
2021/06/02 06:14:40;;;;;;;17.10;14.15;;;16.20;99.90;;;;;;5027871;28;20180;-79
2021/06/02 06:17:38;;;;;;;13.65;11.23;;;16.40;99.90;;;;;;5027733;28;20083;-79
2021/06/02 06:20:10;;;;;;;20.98;11.98;;;16.40;99.90;;;;;;5033926;28;20025;-82
2021/06/02 06:22:50;;;;;;;14.53;9.47;;;16.50;99.90;;;;;;5026965;28;20029;-80
2021/06/02 06:25:32;;;;;;;14.13;10.07;;;16.60;99.90;;;;;;5035803;28;20261;-78
2021/06/02 06:28:17;;;;;;;15.20;10.50;;;16.70;99.90;;;;;;5022888;28;20076;-78
2021/06/02 06:30:49;;;;;;;13.52;12.13;;;16.70;99.90;;;;;;5029053;28;20037;-80
2021/06/02 06:33:17;;;;;;;20.60;13.00;;;16.90;99.90;;;;;;5031090;28;20022;-77
2021/06/02 06:35:45;;;;;;;16.23;11.25;;;17.10;99.90;;;;;;5031844;28;20079;-81
2021/06/02 06:38:21;;;;;;;18.70;12.60;;;17.10;99.90;;;;;;5034125;28;20033;-79
2021/06/02 06:40:50;;;;;;;16.08;12.15;;;17.20;99.90;;;;;;5034391;28;20029;-78
2021/06/02 06:43:18;;;;;;;137.73;34.35;;;17.40;99.90;;;;;;5021300;28;20026;-80
2021/06/02 06:45:45;;;;;;;15.00;9.35;;;17.70;99.90;;;;;;5027887;28;20664;-74
2021/06/02 06:48:23;;;;;;;14.82;11.48;;;17.80;99.90;;;;;;5027907;28;20033;-74
2021/06/02 06:50:53;;;;;;;14.73;10.27;;;17.90;99.90;;;;;;5031582;28;20040;-73
2021/06/02 06:53:20;;;;;;;14.15;8.65;;;18.10;99.90;;;;;;5025114;28;20026;-73
2021/06/02 06:55:46;;;;;;;16.90;9.38;;;18.20;99.90;;;;;;5031445;28;20031;-73
2021/06/02 06:58:12;;;;;;;18.00;8.50;;;18.40;99.90;;;;;;5034458;28;20052;-73
2021/06/02 07:00:39;;;;;;;10.52;8.07;;;18.60;99.90;;;;;;5028280;28;20029;-73
2021/06/02 07:03:06;;;;;;;10.15;6.93;;;18.80;99.90;;;;;;5026007;28;20029;-75
2021/06/02 07:05:33;;;;;;;10.82;6.32;;;19.00;99.80;;;;;;5037718;28;20014;-75
2021/06/02 07:07:59;;;;;;;10.18;5.90;;;19.20;99.90;;;;;;5024331;28;20026;-74
2021/06/02 07:10:25;;;;;;;7.82;5.95;;;19.30;97.60;;;;;;5016918;28;20029;-73
2021/06/02 07:12:52;;;;;;;8.65;5.95;;;19.50;97.80;;;;;;5016889;28;20101;-74
2021/06/02 07:15:18;;;;;;;9.23;5.32;;;19.60;99.10;;;;;;5020421;28;20029;-74
2021/06/02 07:17:46;;;;;;;6.07;4.93;;;19.90;96.70;;;;;;5023959;28;20052;-76
2021/06/02 07:20:20;;;;;;;9.10;5.13;;;20.10;98.10;;;;;;5016298;28;20093;-75
2021/06/02 07:22:47;;;;;;;7.40;5.28;;;20.20;96.90;;;;;;5016040;28;20041;-75
2021/06/02 07:25:18;;;;;;;9.07;5.40;;;20.30;96.90;;;;;;5016026;28;20020;-75
2021/06/02 07:27:49;;;;;;;7.57;4.97;;;20.40;96.60;;;;;;5016849;28;20049;-74
2021/06/02 07:30:19;;;;;;;10.65;6.15;;;20.60;96.60;;;;;;5019950;28;20444;-74
2021/06/02 07:32:45;;;;;;;6.18;5.28;;;20.80;96.00;;;;;;5035546;28;20032;-74
2021/06/02 07:35:12;;;;;;;7.57;5.65;;;21.00;96.30;;;;;;5016599;28;20022;-74
2021/06/02 07:37:38;;;;;;;8.60;6.15;;;21.20;96.50;;;;;;5014661;28;20037;-72
2021/06/02 07:40:06;;;;;;;9.43;6.13;;;21.30;95.30;;;;;;5010256;28;20097;-73
2021/06/02 07:42:32;;;;;;;7.75;6.10;;;21.50;95.40;;;;;;5004309;28;20038;-74
2021/06/02 07:44:58;;;;;;;8.38;5.15;;;21.50;94.90;;;;;;5004881;28;20014;-73
2021/06/02 07:47:23;;;;;;;9.23;6.30;;;21.60;94.30;;;;;;5023149;28;20025;-70
2021/06/02 07:49:49;;;;;;;8.13;5.85;;;21.70;93.40;;;;;;5032338;28;20469;-70
2021/06/02 07:52:14;;;;;;;9.27;5.45;;;21.70;95.20;;;;;;5023618;28;20029;-71
2021/06/02 07:54:41;;;;;;;9.73;5.32;;;21.80;93.70;;;;;;5022524;28;20461;-70
2021/06/02 07:57:07;;;;;;;10.88;4.55;;;21.90;92.90;;;;;;5017729;28;20033;-70
2021/06/02 07:59:33;;;;;;;6.38;5.10;;;22.10;94.60;;;;;;5022760;28;20045;-70
2021/06/02 08:02:00;;;;;;;9.30;5.05;;;22.30;92.80;;;;;;5018443;28;20075;-71
2021/06/02 08:04:26;;;;;;;7.90;4.60;;;22.50;92.40;;;;;;5013255;28;20025;-70
2021/06/02 08:06:52;;;;;;;6.28;3.97;;;22.70;93.50;;;;;;5014434;28;20084;-71
2021/06/02 08:09:18;;;;;;;7.85;4.63;;;22.70;94.40;;;;;;5015211;28;20064;-71
2021/06/02 08:11:47;;;;;;;7.18;4.20;;;22.70;94.60;;;;;;5015725;28;20038;-71
2021/06/02 08:14:14;;;;;;;6.35;3.58;;;22.80;93.00;;;;;;5019660;28;20471;-71
2021/06/02 08:16:40;;;;;;;10.27;5.03;;;22.80;93.50;;;;;;5015489;28;20030;-70
2021/06/02 08:19:05;;;;;;;6.88;4.28;;;22.80;92.00;;;;;;5016571;28;20102;-70
2021/06/02 08:21:32;;;;;;;8.32;4.10;;;23.00;91.10;;;;;;5012409;28;20018;-74
2021/06/02 08:23:57;;;;;;;7.35;4.10;;;23.20;91.60;;;;;;5014696;28;20048;-73
2021/06/02 08:26:23;;;;;;;6.35;4.50;;;23.30;90.60;;;;;;5013220;28;20026;-71
2021/06/02 08:28:49;;;;;;;9.50;4.50;;;23.40;90.60;;;;;;5016002;28;20022;-70
2021/06/02 08:31:14;;;;;;;4.88;3.10;;;23.40;90.10;;;;;;5011088;28;20037;-70
2021/06/02 08:33:42;;;;;;;7.18;3.15;;;23.50;87.50;;;;;;5017265;28;20029;-71
2021/06/02 08:36:07;;;;;;;7.30;4.18;;;23.60;89.90;;;;;;5014881;28;20116;-70
2021/06/02 08:38:33;;;;;;;5.50;3.90;;;23.80;88.80;;;;;;5010210;28;20117;-71
2021/06/02 08:40:59;;;;;;;6.22;3.55;;;24.00;89.20;;;;;;5015625;28;20037;-69
2021/06/02 08:43:25;;;;;;;6.53;3.40;;;24.10;89.00;;;;;;5010192;28;20502;-69
2021/06/02 08:45:56;;;;;;;9.30;4.05;;;24.10;87.50;;;;;;5007031;28;20827;-70
2021/06/02 08:48:21;;;;;;;6.03;3.60;;;24.10;88.30;;;;;;5014232;28;20014;-69
2021/06/02 08:50:47;;;;;;;5.35;4.28;;;24.30;88.80;;;;;;5018496;28;20535;-69
2021/06/02 08:53:17;;;;;;;3.40;3.10;;;24.40;88.00;;;;;;5027290;28;20079;-69
2021/06/02 08:55:45;;;;;;;5.07;3.20;;;24.50;81.20;;;;;;5027242;28;20025;-68
2021/06/02 08:58:21;;;;;;;3.28;3.05;;;24.60;81.70;;;;;;5022906;28;20437;-69
2021/06/02 09:00:47;;;;;;;4.82;2.80;;;24.70;80.40;;;;;;5016217;28;20018;-68
2021/06/02 09:03:13;;;;;;;3.03;2.72;;;24.80;81.00;;;;;;5017659;28;20026;-69
2021/06/02 09:05:39;;;;;;;4.05;3.05;;;24.90;82.70;;;;;;5014974;28;20026;-70
2021/06/02 09:08:07;;;;;;;6.78;2.60;;;25.20;84.10;;;;;;5017563;28;20455;-71
2021/06/02 09:10:40;;;;;;;4.47;3.00;;;25.40;84.80;;;;;;5013252;28;20029;-70
2021/06/02 09:13:20;;;;;;;4.40;2.67;;;25.40;77.50;;;;;;5036787;28;20030;-70
2021/06/02 09:15:50;;;;;;;8.07;3.40;;;25.50;77.10;;;;;;5018534;28;20026;-70
2021/06/02 09:18:18;;;;;;;7.80;3.42;;;25.70;80.10;;;;;;5015668;28;20048;-70
2021/06/02 09:20:45;;;;;;;12.40;4.32;;;25.70;74.50;;;;;;5032298;28;20417;-71
2021/06/02 09:23:37;;;;;;;4.95;2.50;;;25.90;79.50;;;;;;5034341;28;20022;-70
2021/06/02 09:26:12;;;;;;;6.95;2.67;;;26.00;72.30;;;;;;5016366;28;20018;-70
2021/06/02 09:29:02;;;;;;;7.03;3.38;;;26.10;74.40;;;;;;5027740;28;20374;-70
2021/06/02 09:31:41;;;;;;;4.97;2.40;;;26.30;73.80;;;;;;5028737;28;20033;-69
2021/06/02 09:34:24;;;;;;;6.85;2.78;;;26.30;67.70;;;;;;5028980;28;20032;-71
2021/06/02 09:36:53;;;;;;;3.13;2.08;;;26.60;75.60;;;;;;5030233;28;20564;-71
2021/06/02 09:39:21;;;;;;;2.78;2.10;;;26.90;67.30;;;;;;5016819;28;20041;-70
2021/06/02 09:41:48;;;;;;;6.50;2.70;;;26.90;64.60;;;;;;5021467;28;21573;-71
2021/06/02 09:44:13;;;;;;;4.47;2.53;;;26.90;64.60;;;;;;5019951;28;20084;-70
2021/06/02 09:47:00;;;;;;;2.58;2.35;;;26.80;64.80;;;;;;5026391;28;20038;-72
2021/06/02 09:49:26;;;;;;;6.22;2.65;;;27.00;71.50;;;;;;5024345;28;20057;-70
2021/06/02 09:51:53;;;;;;;5.05;2.78;;;27.10;67.10;;;;;;5019335;28;20037;-71
2021/06/02 09:54:27;;;;;;;12.95;3.17;;;27.10;64.60;;;;;;5017260;28;20029;-72
2021/06/02 09:56:53;;;;;;;5.55;2.30;;;27.20;68.00;;;;;;5017512;28;20038;-71
2021/06/02 09:59:19;;;;;;;2.92;2.38;;;27.30;66.20;;;;;;5027150;28;20032;-72
2021/06/02 10:02:00;;;;;;;5.18;2.42;;;27.50;65.70;;;;;;5025452;28;20029;-71
2021/06/02 10:04:36;;;;;;;2.40;1.77;;;27.40;62.10;;;;;;5027509;28;20025;-70
2021/06/02 10:07:04;;;;;;;4.25;2.10;;;27.50;63.10;;;;;;5026109;28;20351;-71
2021/06/02 10:09:35;;;;;;;2.85;2.60;;;27.70;61.20;;;;;;5025869;28;20021;-71
2021/06/02 10:12:08;;;;;;;4.68;2.38;;;27.60;62.70;;;;;;5014933;28;20113;-70
2021/06/02 10:14:37;;;;;;;4.30;2.30;;;27.50;62.90;;;;;;5016951;28;20034;-71
2021/06/02 10:17:03;;;;;;;2.70;2.50;;;27.70;64.60;;;;;;5016305;28;20375;-72
2021/06/02 10:19:43;;;;;;;4.10;2.55;;;27.60;62.10;;;;;;5011879;28;20034;-71
2021/06/02 10:22:39;;;;;;;5.05;2.33;;;27.70;60.80;;;;;;5015832;28;20022;-71
2021/06/02 10:25:08;;;;;;;3.08;2.60;;;28.00;61.20;;;;;;5011790;28;20025;-73
2021/06/02 10:27:34;;;;;;;3.67;2.55;;;28.20;67.70;;;;;;5025633;28;20025;-70
2021/06/02 10:30:00;;;;;;;2.47;1.95;;;28.10;61.60;;;;;;5024222;28;20040;-74
2021/06/02 10:32:26;;;;;;;12.43;4.63;;;28.30;64.50;;;;;;5031343;28;20390;-73
2021/06/02 10:34:53;;;;;;;6.55;2.70;;;28.40;64.90;;;;;;5016236;28;20022;-71
2021/06/02 10:37:21;;;;;;;2.88;2.20;;;28.20;62.40;;;;;;5026626;28;20053;-73
2021/06/02 10:40:01;;;;;;;5.38;2.42;;;28.30;63.30;;;;;;5030166;28;20075;-70
2021/06/02 10:42:38;;;;;;;3.92;2.53;;;28.40;58.90;;;;;;5027090;28;20064;-74
2021/06/02 10:45:29;;;;;;;4.95;2.47;;;28.40;63.50;;;;;;5023914;28;20029;-70
2021/06/02 10:47:57;;;;;;;4.87;3.03;;;28.20;60.90;;;;;;5018602;28;20542;-71
2021/06/02 10:50:42;;;;;;;7.72;3.50;;;28.60;59.90;;;;;;5013188;28;20068;-70
2021/06/02 10:53:25;;;;;;;12.32;2.90;;;28.80;64.00;;;;;;5016510;28;20030;-71
2021/06/02 10:55:57;;;;;;;9.32;3.20;;;28.90;60.60;;;;;;5019972;28;20025;-71
2021/06/02 10:58:46;;;;;;;3.75;2.00;;;29.20;60.60;;;;;;5015379;28;20060;-74
2021/06/02 11:01:17;;;;;;;1.90;1.80;;;29.20;59.80;;;;;;5011320;28;20105;-76
2021/06/02 11:04:03;;;;;;;6.18;2.50;;;28.90;53.90;;;;;;5025139;28;20398;-71
2021/06/02 11:06:34;;;;;;;5.57;2.92;;;29.20;55.40;;;;;;5019376;28;20482;-75
2021/06/02 11:09:04;;;;;;;10.70;2.85;;;29.20;60.70;;;;;;5026574;28;20025;-70
2021/06/02 11:11:32;;;;;;;5.00;2.30;;;29.40;57.70;;;;;;5020283;28;20609;-70
2021/06/02 11:16:42;;;;;;;3.00;1.92;;;29.60;56.90;;;;;;5017593;28;20040;-70
2021/06/02 11:19:18;;;;;;;9.50;2.72;;;29.40;58.00;;;;;;5025792;28;20045;-73
2021/06/02 11:22:07;;;;;;;3.38;2.10;;;29.30;60.10;;;;;;5029769;28;20661;-71
2021/06/02 11:24:34;;;;;;;3.47;2.67;;;29.20;58.50;;;;;;5021401;28;20017;-70
2021/06/02 11:29:37;;;;;;;2.33;2.13;;;29.80;56.30;;;;;;5026636;28;20040;-71
2021/06/02 11:32:23;;;;;;;6.15;2.00;;;29.30;57.20;;;;;;5029871;28;20021;-70
2021/06/02 11:34:57;;;;;;;3.40;1.92;;;29.40;58.50;;;;;;5029365;28;20071;-70
2021/06/02 11:37:26;;;;;;;3.88;2.17;;;29.40;57.20;;;;;;5012262;28;20033;-71
2021/06/02 11:39:54;;;;;;;5.40;1.95;;;29.20;55.90;;;;;;5025901;28;20040;-71
2021/06/02 11:42:39;;;;;;;4.95;2.08;;;29.40;58.40;;;;;;5027002;28;20036;-70
2021/06/02 11:45:05;;;;;;;3.53;2.00;;;29.40;57.00;;;;;;5027770;28;20053;-70
2021/06/02 11:47:31;;;;;;;4.55;2.40;;;29.60;59.10;;;;;;5024821;28;20467;-72
2021/06/02 11:50:05;;;;;;;3.38;2.33;;;29.70;55.90;;;;;;5034125;28;20069;-71
2021/06/02 11:52:31;;;;;;;2.60;2.40;;;29.90;61.60;;;;;;5026124;28;20030;-70
2021/06/02 11:55:03;;;;;;;3.30;1.95;;;30.00;58.00;;;;;;5030333;28;20083;-76
2021/06/02 11:57:36;;;;;;;6.90;2.60;;;29.80;56.50;;;;;;5025007;28;20389;-75
2021/06/02 12:00:07;;;;;;;7.90;2.38;;;29.60;59.60;;;;;;5026967;28;20029;-70
2021/06/02 12:02:33;;;;;;;4.50;2.15;;;29.80;64.40;;;;;;5026627;28;20492;-73
2021/06/02 12:05:18;;;;;;;4.45;2.22;;;30.00;60.40;;;;;;5025878;28;20370;-70
2021/06/02 12:07:47;;;;;;;3.05;1.98;;;29.90;55.90;;;;;;5024223;28;20144;-70
2021/06/02 12:10:14;;;;;;;3.03;2.30;;;29.90;56.90;;;;;;5025750;28;20025;-72
2021/06/02 12:12:41;;;;;;;4.35;2.08;;;29.90;56.50;;;;;;5022633;28;20041;-78
2021/06/02 12:15:07;;;;;;;3.47;1.80;;;30.10;56.40;;;;;;5034561;28;20068;-70
2021/06/02 12:17:34;;;;;;;3.28;2.00;;;30.40;56.60;;;;;;5023219;28;20034;-71
2021/06/02 12:20:03;;;;;;;5.93;2.17;;;30.50;57.00;;;;;;5024883;28;20492;-73
2021/06/02 12:22:28;;;;;;;3.90;2.40;;;30.50;58.40;;;;;;5026405;28;20120;-74
2021/06/02 12:25:13;;;;;;;5.25;2.20;;;30.30;58.20;;;;;;5031632;28;20100;-72
2021/06/02 12:27:45;;;;;;;3.67;2.28;;;30.20;58.10;;;;;;5028181;28;20479;-73
2021/06/02 12:30:12;;;;;;;2.60;2.10;;;30.00;56.70;;;;;;5040189;28;20029;-76
2021/06/02 12:32:46;;;;;;;2.40;2.17;;;30.10;58.10;;;;;;5026652;28;20025;-75
2021/06/02 12:35:42;;;;;;;2.70;2.40;;;30.10;56.80;;;;;;5023690;28;20021;-71
2021/06/02 12:38:36;;;;;;;3.58;2.28;;;30.30;58.00;;;;;;5026261;28;20075;-71
2021/06/02 12:41:02;;;;;;;4.03;2.20;;;30.50;55.90;;;;;;5019042;28;20053;-71
2021/06/02 12:43:40;;;;;;;6.93;2.67;;;30.50;57.60;;;;;;5021040;28;20018;-70
2021/06/02 12:46:14;;;;;;;4.22;2.42;;;30.10;54.90;;;;;;5027196;28;20485;-71
2021/06/02 12:48:40;;;;;;;5.00;2.55;;;30.10;55.60;;;;;;5032486;28;20029;-71
2021/06/02 12:51:11;;;;;;;3.38;2.15;;;30.30;55.60;;;;;;5020221;28;20053;-71
2021/06/02 12:53:43;;;;;;;2.13;1.98;;;30.30;55.30;;;;;;5026003;28;20026;-71
2021/06/02 12:56:10;;;;;;;3.80;2.50;;;30.40;55.10;;;;;;5022969;28;20041;-71
2021/06/02 12:58:37;;;;;;;4.10;2.33;;;30.60;56.60;;;;;;5025088;28;20123;-71
2021/06/02 13:01:05;;;;;;;2.83;2.60;;;30.80;58.20;;;;;;5028534;28;20021;-70
2021/06/02 13:03:31;;;;;;;3.20;2.88;;;30.70;55.00;;;;;;5027831;28;20030;-71
2021/06/02 13:05:57;;;;;;;3.45;2.50;;;30.70;54.70;;;;;;5039335;28;20095;-72
2021/06/02 13:08:26;;;;;;;3.90;2.58;;;30.80;56.80;;;;;;5029893;28;20017;-74
2021/06/02 13:10:52;;;;;;;3.78;2.83;;;30.70;56.80;;;;;;5030943;28;20036;-74
2021/06/02 13:13:18;;;;;;;5.55;2.50;;;30.80;57.70;;;;;;5020650;28;20057;-80
2021/06/02 13:15:55;;;;;;;4.43;2.45;;;30.70;56.80;;;;;;5031688;28;20091;-80
2021/06/02 13:18:29;;;;;;;4.80;2.50;;;30.70;58.80;;;;;;5030573;28;20033;-82
2021/06/02 13:21:16;;;;;;;4.07;2.35;;;30.50;58.60;;;;;;5031342;28;20095;-70
2021/06/02 13:23:42;;;;;;;4.28;2.40;;;30.70;55.50;;;;;;5030694;28;20045;-70
2021/06/02 13:26:15;;;;;;;3.35;2.15;;;30.90;56.50;;;;;;5037985;28;20009;-70
2021/06/02 13:28:52;;;;;;;5.65;2.50;;;31.10;58.60;;;;;;5039685;28;20048;-70
2021/06/02 13:31:19;;;;;;;3.30;2.17;;;31.00;57.90;;;;;;5030746;28;20018;-70
2021/06/02 13:33:47;;;;;;;6.07;2.38;;;30.90;57.70;;;;;;5028554;28;20060;-70
2021/06/02 13:36:22;;;;;;;2.88;2.30;;;31.00;58.80;;;;;;5035551;28;20059;-70